createdAt,value
2023-03-01T00:00:53.316Z,-5.11
2023-03-01T00:01:57.206Z,-5.13
2023-03-01T00:03:03.862Z,-5.16
2023-03-01T00:04:07.875Z,-5.17
2023-03-01T00:05:14.706Z,-5.22
2023-03-01T00:06:19.013Z,-5.19
2023-03-01T00:07:24.932Z,-5.22
2023-03-01T00:08:29.057Z,-5.16
2023-03-01T00:09:35.425Z,-5.15
2023-03-01T00:10:41.830Z,-5.17
2023-03-01T00:11:48.625Z,-5.21
2023-03-01T00:12:52.161Z,-5.18
2023-03-01T00:14:00.818Z,-5.21
2023-03-01T00:15:06.484Z,-5.20
2023-03-01T00:16:14.502Z,-5.24
2023-03-01T00:17:19.745Z,-5.19
2023-03-01T00:18:23.834Z,-5.27
2023-03-01T00:19:30.265Z,-5.31
2023-03-01T00:20:33.970Z,-5.32
2023-03-01T00:21:40.580Z,-5.19
2023-03-01T00:22:43.884Z,-5.25
2023-03-01T00:23:50.204Z,-5.28
2023-03-01T00:24:54.036Z,-5.31
2023-03-01T00:26:02.612Z,-5.25
2023-03-01T00:27:05.793Z,-5.29
2023-03-01T00:28:12.770Z,-5.33
2023-03-01T00:29:16.156Z,-5.31
2023-03-01T00:30:23.324Z,-5.29
2023-03-01T00:31:29.054Z,-5.30
2023-03-01T00:32:35.122Z,-5.27
2023-03-01T00:33:37.920Z,-5.20
2023-03-01T00:34:43.987Z,-5.25
2023-03-01T00:35:47.419Z,-5.27
2023-03-01T00:36:53.743Z,-5.26
2023-03-01T00:37:59.470Z,-5.22
2023-03-01T00:39:07.323Z,-5.23
2023-03-01T00:40:12.467Z,-5.25
2023-03-01T00:41:23.921Z,-5.24
2023-03-01T00:42:26.854Z,-5.26
2023-03-01T00:43:32.937Z,-5.27
2023-03-01T00:44:36.768Z,-5.27
2023-03-01T00:45:42.580Z,-5.25
2023-03-01T00:46:46.192Z,-5.17
2023-03-01T00:47:53.590Z,-5.12
2023-03-01T00:48:56.779Z,-5.13
2023-03-01T00:50:02.938Z,-5.09
2023-03-01T00:51:10.736Z,-4.97
2023-03-01T00:52:16.720Z,-4.89
2023-03-01T00:53:19.970Z,-4.82
2023-03-01T00:54:25.958Z,-4.74
2023-03-01T00:55:29.316Z,-4.65
2023-03-01T00:56:37.719Z,-4.59
2023-03-01T00:57:40.723Z,-4.53
2023-03-01T00:58:46.833Z,-4.46
2023-03-01T00:59:50.362Z,-4.41
2023-03-01T01:00:56.633Z,-4.37
2023-03-01T01:02:01.099Z,-4.30
2023-03-01T01:03:07.790Z,-4.18
2023-03-01T01:04:16.281Z,-4.13
2023-03-01T01:05:22.537Z,-4.08
2023-03-01T01:06:30.347Z,-4.03
2023-03-01T01:07:34.160Z,-3.99
2023-03-01T01:08:40.311Z,-3.92
2023-03-01T01:09:43.551Z,-3.87
2023-03-01T01:10:50.055Z,-3.82
2023-03-01T01:11:56.082Z,-3.79
2023-03-01T01:13:02.438Z,-3.75
2023-03-01T01:14:05.311Z,-3.72
2023-03-01T01:15:14.446Z,-3.69
2023-03-01T01:16:19.220Z,-3.67
2023-03-01T01:17:25.580Z,-3.65
2023-03-01T01:18:28.968Z,-3.63
2023-03-01T01:19:35.213Z,-3.62
2023-03-01T01:20:39.343Z,-3.57
2023-03-01T01:21:46.134Z,-3.56
2023-03-01T01:22:49.661Z,-3.53
2023-03-01T01:23:56.486Z,-3.49
2023-03-01T01:25:00.240Z,-3.45
2023-03-01T01:26:12.279Z,-3.44
2023-03-01T01:27:18.584Z,-3.41
2023-03-01T01:28:24.705Z,-3.43
2023-03-01T01:29:28.114Z,-3.40
2023-03-01T01:30:34.756Z,-3.41
2023-03-01T01:31:39.870Z,-3.43
2023-03-01T01:32:46.283Z,-3.43
2023-03-01T01:33:50.227Z,-3.41
2023-03-01T01:34:56.639Z,-3.40
2023-03-01T01:36:00.308Z,-3.37
2023-03-01T01:37:09.414Z,-3.38
2023-03-01T01:38:12.855Z,-3.32
2023-03-01T01:39:19.290Z,-3.34
2023-03-01T01:40:22.724Z,-3.38
2023-03-01T01:41:30.453Z,-3.38
2023-03-01T01:42:37.107Z,-3.36
2023-03-01T01:43:45.863Z,-3.37
2023-03-01T01:44:49.835Z,-3.38
2023-03-01T01:45:59.703Z,-3.37
2023-03-01T01:47:06.349Z,-3.37
2023-03-01T01:48:17.799Z,-3.31
2023-03-01T01:49:33.559Z,-3.29
2023-03-01T01:50:40.342Z,-3.31
2023-03-01T01:51:50.473Z,-3.35
2023-03-01T01:52:55.416Z,-3.35
2023-03-01T01:54:06.239Z,-3.35
2023-03-01T01:55:12.460Z,-3.31
2023-03-01T01:56:20.374Z,-3.33
2023-03-01T01:57:29.569Z,-3.32
2023-03-01T01:58:38.020Z,-3.37
2023-03-01T01:59:44.412Z,-3.38
2023-03-01T02:00:51.891Z,-3.35
2023-03-01T02:01:58.386Z,-3.35
2023-03-01T02:03:05.070Z,-3.36
2023-03-01T02:04:11.655Z,-3.34
2023-03-01T02:05:22.823Z,-3.38
2023-03-01T02:06:33.460Z,-3.34
2023-03-01T02:07:38.824Z,-3.30
2023-03-01T02:08:49.048Z,-3.29
2023-03-01T02:09:57.553Z,-3.28
2023-03-01T02:11:05.698Z,-3.28
2023-03-01T02:12:09.039Z,-3.22
2023-03-01T02:13:16.145Z,-3.25
2023-03-01T02:14:23.315Z,-3.23
2023-03-01T02:15:29.771Z,-3.25
2023-03-01T02:16:34.773Z,-3.20
2023-03-01T02:17:42.519Z,-3.24
2023-03-01T02:18:47.286Z,-3.18
2023-03-01T02:20:08.990Z,-3.20
2023-03-01T02:21:27.437Z,-3.18
2023-03-01T02:22:37.029Z,-3.19
2023-03-01T02:23:40.565Z,-3.17
2023-03-01T02:24:57.634Z,-3.19
2023-03-01T02:26:08.877Z,-3.20
2023-03-01T02:27:15.327Z,-3.18
2023-03-01T02:28:46.483Z,-3.20
2023-03-01T02:29:53.086Z,-3.20
2023-03-01T02:31:11.160Z,-3.15
2023-03-01T02:32:17.037Z,-3.11
2023-03-01T02:33:22.909Z,-3.10
2023-03-01T02:34:30.716Z,-3.12
2023-03-01T02:35:37.386Z,-3.13
2023-03-01T02:36:47.269Z,-3.16
2023-03-01T02:37:51.281Z,-3.21
2023-03-01T02:39:01.194Z,-3.17
2023-03-01T02:40:13.064Z,-3.08
2023-03-01T02:41:22.618Z,-3.15
2023-03-01T02:42:33.072Z,-3.19
2023-03-01T02:43:40.292Z,-3.19
2023-03-01T02:44:47.240Z,-3.12
2023-03-01T02:45:55.593Z,-3.14
2023-03-01T02:47:02.671Z,-3.10
2023-03-01T02:48:08.580Z,-3.15
2023-03-01T02:49:27.847Z,-3.18
2023-03-01T02:50:58.490Z,-3.15
2023-03-01T02:52:28.487Z,-3.19
2023-03-01T02:53:41.986Z,-3.21
2023-03-01T02:54:54.803Z,-3.15
2023-03-01T02:55:58.634Z,-3.10
2023-03-01T02:57:06.892Z,-3.13
2023-03-01T02:58:11.385Z,-3.16
2023-03-01T02:59:34.257Z,-3.06
2023-03-01T03:00:46.931Z,-3.11
2023-03-01T03:01:54.377Z,-3.07
2023-03-01T03:02:59.025Z,-3.08
2023-03-01T03:04:06.262Z,-3.09
2023-03-01T03:05:13.216Z,-3.13
2023-03-01T03:06:19.479Z,-3.10
2023-03-01T03:07:23.108Z,-3.11
2023-03-01T03:08:29.837Z,-3.06
2023-03-01T03:09:33.607Z,-3.03
2023-03-01T03:10:44.432Z,-3.03
2023-03-01T03:11:48.250Z,-3.02
2023-03-01T03:14:39.292Z,-3.02
2023-03-01T03:15:44.914Z,-2.95
2023-03-01T03:16:51.948Z,-2.93
2023-03-01T03:17:55.180Z,-2.95
2023-03-01T03:19:06.038Z,-2.95
2023-03-01T03:20:12.944Z,-2.97
2023-03-01T03:21:18.686Z,-2.95
2023-03-01T03:22:20.790Z,-3.00
2023-03-01T03:23:25.908Z,-2.93
2023-03-01T03:24:39.094Z,-2.91
2023-03-01T03:25:44.137Z,-2.93
2023-03-01T03:26:46.311Z,-2.92
2023-03-01T03:27:57.917Z,-2.89
2023-03-01T03:28:59.941Z,-2.90
2023-03-01T03:30:04.869Z,-2.92
2023-03-01T03:31:09.785Z,-2.85
2023-03-01T03:32:14.693Z,-2.81
2023-03-01T03:33:16.809Z,-2.87
2023-03-01T03:34:21.458Z,-2.87
2023-03-01T03:35:26.383Z,-2.89
2023-03-01T03:36:33.885Z,-2.90
2023-03-01T03:37:52.126Z,-2.86
2023-03-01T03:38:56.839Z,-2.87
2023-03-01T03:40:00.414Z,-2.90
2023-03-01T03:41:08.537Z,-2.82
2023-03-01T03:42:11.273Z,-2.83
2023-03-01T03:43:17.736Z,-2.81
2023-03-01T03:44:19.860Z,-2.84
2023-03-01T03:45:24.905Z,-2.87
2023-03-01T03:46:32.674Z,-2.92
2023-03-01T03:47:35.004Z,-2.93
2023-03-01T03:48:41.576Z,-2.96
2023-03-01T03:49:43.989Z,-2.90
2023-03-01T03:50:52.830Z,-2.96
2023-03-01T03:51:58.145Z,-2.93
2023-03-01T03:53:02.452Z,-2.99
2023-03-01T03:54:07.164Z,-2.98
2023-03-01T03:55:12.640Z,-2.89
2023-03-01T03:56:17.454Z,-2.91
2023-03-01T03:57:19.517Z,-2.97
2023-03-01T03:58:26.381Z,-2.95
2023-03-01T03:59:28.948Z,-2.92
2023-03-01T04:00:33.780Z,-2.94
2023-03-01T04:01:41.090Z,-2.97
2023-03-01T04:02:43.999Z,-2.94
2023-03-01T04:03:49.147Z,-2.89
2023-03-01T04:04:51.219Z,-2.89
2023-03-01T04:05:56.587Z,-2.96
2023-03-01T04:06:58.656Z,-2.89
2023-03-01T04:08:08.659Z,-2.92
2023-03-01T04:09:10.709Z,-2.99
2023-03-01T04:10:17.589Z,-2.94
2023-03-01T04:11:32.436Z,-2.97
2023-03-01T04:12:37.205Z,-2.96
2023-03-01T04:13:43.307Z,-2.90
2023-03-01T04:14:48.930Z,-2.97
2023-03-01T04:15:55.747Z,-2.92
2023-03-01T04:17:02.725Z,-2.93
2023-03-01T04:18:10.046Z,-2.92
2023-03-01T04:19:13.626Z,-2.89
2023-03-01T04:20:26.407Z,-2.96
2023-03-01T04:21:32.029Z,-2.95
2023-03-01T04:22:35.969Z,-3.03
2023-03-01T04:23:42.026Z,-3.00
2023-03-01T04:24:45.590Z,-3.02
2023-03-01T04:25:56.787Z,-3.04
2023-03-01T04:27:00.301Z,-3.10
2023-03-01T04:28:05.711Z,-3.13
2023-03-01T04:29:11.807Z,-3.14
2023-03-01T04:30:15.961Z,-3.08
2023-03-01T04:31:25.576Z,-3.06
2023-03-01T04:32:31.874Z,-3.05
2023-03-01T04:33:37.633Z,-3.05
2023-03-01T04:34:41.637Z,-3.05
2023-03-01T04:35:50.884Z,-3.06
2023-03-01T04:36:54.165Z,-3.07
2023-03-01T04:37:59.800Z,-3.05
2023-03-01T04:39:13.621Z,-3.01
2023-03-01T04:40:17.699Z,-3.06
2023-03-01T04:41:25.465Z,-3.01
2023-03-01T04:42:28.364Z,-3.04
2023-03-01T04:43:36.495Z,-3.06
2023-03-01T04:44:40.074Z,-3.03
2023-03-01T04:45:46.104Z,-3.03
2023-03-01T04:46:51.391Z,-3.02
2023-03-01T04:47:59.498Z,-3.00
2023-03-01T04:49:02.895Z,-3.01
2023-03-01T04:50:09.213Z,-3.03
2023-03-01T04:51:14.683Z,-2.96
2023-03-01T04:52:20.106Z,-2.90
2023-03-01T04:53:23.161Z,-2.97
2023-03-01T04:54:29.329Z,-2.96
2023-03-01T04:55:32.914Z,-2.90
2023-03-01T04:56:38.767Z,-2.90
2023-03-01T04:57:42.186Z,-2.95
2023-03-01T04:58:48.482Z,-3.02
2023-03-01T04:59:52.339Z,-2.98
2023-03-01T05:00:58.949Z,-2.96
2023-03-01T05:02:01.922Z,-2.89
2023-03-01T05:03:09.720Z,-2.94
2023-03-01T05:04:16.059Z,-3.01
2023-03-01T05:05:19.099Z,-2.94
2023-03-01T05:06:25.708Z,-2.96
2023-03-01T05:07:29.274Z,-2.98
2023-03-01T05:08:35.592Z,-2.95
2023-03-01T05:09:38.672Z,-2.97
2023-03-01T05:10:44.542Z,-3.02
2023-03-01T05:11:48.504Z,-2.98
2023-03-01T05:12:54.427Z,-3.00
2023-03-01T05:13:57.949Z,-2.90
2023-03-01T05:15:08.532Z,-2.89
2023-03-01T05:16:13.087Z,-2.96
2023-03-01T05:19:29.436Z,-2.95
2023-03-01T05:20:32.844Z,-3.01
2023-03-01T05:21:59.694Z,-2.97
2023-03-01T05:23:06.563Z,-3.00
2023-03-01T05:24:13.266Z,-3.00
2023-03-01T05:25:19.273Z,-2.96
2023-03-01T05:26:29.699Z,-2.91
2023-03-01T05:27:32.879Z,-2.90
2023-03-01T05:28:39.200Z,-2.93
2023-03-01T05:29:42.560Z,-2.92
2023-03-01T05:30:48.154Z,-2.93
2023-03-01T05:31:52.460Z,-2.88
2023-03-01T05:32:59.065Z,-2.88
2023-03-01T05:34:03.923Z,-2.88
2023-03-01T05:35:14.861Z,-2.82
2023-03-01T05:36:20.141Z,-2.85
2023-03-01T05:37:23.588Z,-2.86
2023-03-01T05:38:30.008Z,-2.89
2023-03-01T05:39:33.397Z,-2.93
2023-03-01T05:40:38.399Z,-3.00
2023-03-01T05:41:41.711Z,-3.02
2023-03-01T05:42:50.537Z,-2.99
2023-03-01T05:43:52.511Z,-2.98
2023-03-01T05:44:57.803Z,-3.04
2023-03-01T05:45:59.819Z,-3.05
2023-03-01T05:47:04.493Z,-3.07
2023-03-01T05:48:10.290Z,-3.06
2023-03-01T05:49:14.380Z,-3.08
2023-03-01T05:50:23.443Z,-3.06
2023-03-01T05:51:25.616Z,-3.16
2023-03-01T05:52:30.340Z,-3.19
2023-03-01T05:53:35.034Z,-3.26
2023-03-01T05:54:37.783Z,-3.30
2023-03-01T05:55:43.825Z,-3.32
2023-03-01T05:56:46.241Z,-3.29
2023-03-01T05:57:52.293Z,-3.35
2023-03-01T05:58:54.347Z,-3.38
2023-03-01T05:59:58.980Z,-3.44
2023-03-01T06:01:03.669Z,-3.53
2023-03-01T06:02:05.814Z,-3.59
2023-03-01T06:03:10.606Z,-3.60
2023-03-01T06:04:12.613Z,-3.62
2023-03-01T06:05:17.675Z,-3.73
2023-03-01T06:06:22.263Z,-3.68
2023-03-01T06:07:26.999Z,-3.70
2023-03-01T06:08:29.199Z,-3.82
2023-03-01T06:09:33.990Z,-3.85
2023-03-01T06:10:36.085Z,-3.86
2023-03-01T06:11:41.342Z,-3.86
2023-03-01T06:12:44.804Z,-3.93
2023-03-01T06:13:50.183Z,-3.98
2023-03-01T06:14:52.447Z,-4.06
2023-03-01T06:15:57.230Z,-4.01
2023-03-01T06:16:59.664Z,-4.08
2023-03-01T06:18:04.525Z,-4.12
2023-03-01T06:19:06.676Z,-4.06
2023-03-01T06:20:14.420Z,-4.06
2023-03-01T06:21:19.429Z,-4.12
2023-03-01T06:22:24.501Z,-4.06
2023-03-01T06:23:29.469Z,-4.12
2023-03-01T06:24:31.754Z,-4.14
2023-03-01T06:25:37.215Z,-4.17
2023-03-01T06:26:39.302Z,-4.13
2023-03-01T06:27:44.952Z,-4.12
2023-03-01T06:28:47.377Z,-4.10
2023-03-01T06:29:52.465Z,-4.17
2023-03-01T06:30:54.782Z,-4.15
2023-03-01T06:31:59.734Z,-4.15
2023-03-01T06:33:02.571Z,-4.16
2023-03-01T06:34:07.409Z,-4.19
2023-03-01T06:35:11.823Z,-4.24
2023-03-01T06:36:19.724Z,-4.28
2023-03-01T06:37:24.475Z,-4.27
2023-03-01T06:38:29.085Z,-4.28
2023-03-01T06:39:31.310Z,-4.29
2023-03-01T06:40:36.523Z,-4.22
2023-03-01T06:41:38.816Z,-4.28
2023-03-01T06:42:45.216Z,-4.24
2023-03-01T06:43:47.613Z,-4.24
2023-03-01T06:44:52.340Z,-4.23
2023-03-01T06:45:54.725Z,-4.24
2023-03-01T06:46:59.504Z,-4.26
2023-03-01T06:48:06.620Z,-4.23
2023-03-01T06:49:11.612Z,-4.18
2023-03-01T06:50:15.087Z,-4.16
2023-03-01T06:51:19.921Z,-4.17
2023-03-01T06:52:24.894Z,-4.10
2023-03-01T06:53:29.594Z,-4.09
2023-03-01T06:54:31.840Z,-4.01
2023-03-01T06:55:36.774Z,-3.99
2023-03-01T06:56:38.988Z,-3.98
2023-03-01T06:57:43.898Z,-3.96
2023-03-01T06:58:46.070Z,-3.96
2023-03-01T06:59:51.077Z,-3.93
2023-03-01T07:00:53.495Z,-3.91
2023-03-01T07:01:58.650Z,-3.91
2023-03-01T07:03:03.047Z,-3.89
2023-03-01T07:04:08.225Z,-3.92
2023-03-01T07:05:13.214Z,-3.90
2023-03-01T07:06:15.631Z,-3.89
2023-03-01T07:07:21.410Z,-3.84
2023-03-01T07:10:21.403Z,-3.82
2023-03-01T07:11:26.403Z,-3.70
2023-03-01T07:12:28.384Z,-3.64
2023-03-01T07:13:33.000Z,-3.69
2023-03-01T07:14:35.049Z,-3.68
2023-03-01T07:15:39.782Z,-3.68
2023-03-01T07:16:41.921Z,-3.63
2023-03-01T07:17:48.720Z,-3.56
2023-03-01T07:18:53.386Z,-3.55
2023-03-01T07:19:55.446Z,-3.44
2023-03-01T07:21:00.116Z,-3.45
2023-03-01T07:22:05.349Z,-3.37
2023-03-01T07:23:08.076Z,-3.37
2023-03-01T07:24:13.465Z,-3.30
2023-03-01T07:25:18.454Z,-3.33
2023-03-01T07:26:25.241Z,-3.31
2023-03-01T07:27:28.246Z,-3.32
2023-03-01T07:28:37.020Z,-3.29
2023-03-01T07:29:41.752Z,-3.24
2023-03-01T07:30:43.824Z,-3.23
2023-03-01T07:31:48.761Z,-3.19
2023-03-01T07:32:55.599Z,-3.15
2023-03-01T07:33:57.965Z,-3.10
2023-03-01T07:35:02.619Z,-3.03
2023-03-01T07:36:08.952Z,-3.03
2023-03-01T07:37:11.181Z,-2.98
2023-03-01T07:38:15.953Z,-2.95
2023-03-01T07:39:19.445Z,-2.88
2023-03-01T07:40:27.125Z,-2.82
2023-03-01T07:41:31.811Z,-2.81
2023-03-01T07:42:33.963Z,-2.79
2023-03-01T07:43:38.569Z,-2.73
2023-03-01T07:44:40.640Z,-2.70
2023-03-01T07:45:45.249Z,-2.66
2023-03-01T07:46:47.457Z,-2.60
2023-03-01T07:47:53.749Z,-2.63
2023-03-01T07:48:59.365Z,-2.58
2023-03-01T07:50:04.882Z,-2.60
2023-03-01T07:51:08.691Z,-2.51
2023-03-01T07:52:14.913Z,-2.47
2023-03-01T07:53:17.010Z,-2.48
2023-03-01T07:54:21.843Z,-2.42
2023-03-01T07:55:29.163Z,-2.33
2023-03-01T07:56:31.453Z,-2.26
2023-03-01T07:57:36.264Z,-2.21
2023-03-01T07:58:39.988Z,-2.25
2023-03-01T07:59:44.707Z,-2.22
2023-03-01T08:00:46.684Z,-2.21
2023-03-01T08:01:51.356Z,-2.12
2023-03-01T08:02:56.081Z,-2.04
2023-03-01T08:03:58.070Z,-1.92
2023-03-01T08:05:02.835Z,-1.94
2023-03-01T08:06:07.067Z,-1.93
2023-03-01T08:07:11.985Z,-1.96
2023-03-01T08:08:13.999Z,-1.86
2023-03-01T08:09:18.784Z,-1.82
2023-03-01T08:10:20.958Z,-1.78
2023-03-01T08:11:29.249Z,-1.72
2023-03-01T08:12:33.819Z,-1.69
2023-03-01T08:13:36.082Z,-1.61
2023-03-01T08:14:40.990Z,-1.74
2023-03-01T08:15:43.039Z,-1.63
2023-03-01T08:16:47.693Z,-1.49
2023-03-01T08:17:51.392Z,-1.37
2023-03-01T08:18:57.741Z,-1.20
2023-03-01T08:20:02.791Z,-1.02
2023-03-01T08:21:08.280Z,-0.71
2023-03-01T08:22:12.984Z,-0.38
2023-03-01T08:23:15.094Z,0.03
2023-03-01T08:24:19.839Z,0.44
2023-03-01T08:25:21.908Z,0.70
2023-03-01T08:26:29.293Z,0.92
2023-03-01T08:27:34.075Z,0.83
2023-03-01T08:28:38.984Z,1.39
2023-03-01T08:29:43.654Z,1.77
2023-03-01T08:30:48.484Z,1.98
2023-03-01T08:31:53.201Z,1.99
2023-03-01T08:32:55.861Z,2.41
2023-03-01T08:34:03.829Z,2.71
2023-03-01T08:35:09.543Z,2.91
2023-03-01T08:36:11.629Z,3.19
2023-03-01T08:37:16.253Z,3.31
2023-03-01T08:38:20.828Z,3.36
2023-03-01T08:39:25.546Z,3.34
2023-03-01T08:40:27.655Z,3.56
2023-03-01T08:41:34.879Z,3.59
2023-03-01T08:42:37.646Z,3.80
2023-03-01T08:43:42.340Z,4.07
2023-03-01T08:44:47.117Z,4.10
2023-03-01T08:45:49.881Z,4.38
2023-03-01T08:46:56.714Z,4.50
2023-03-01T08:47:58.837Z,4.58
2023-03-01T08:49:03.848Z,4.66
2023-03-01T08:50:09.850Z,4.53
2023-03-01T08:51:13.704Z,4.81
2023-03-01T08:52:18.315Z,4.58
2023-03-01T08:53:20.289Z,5.09
2023-03-01T08:54:26.112Z,5.06
2023-03-01T08:55:30.718Z,4.88
2023-03-01T08:56:38.093Z,5.54
2023-03-01T08:57:40.072Z,5.39
2023-03-01T08:58:48.065Z,5.56
2023-03-01T08:59:50.148Z,5.39
2023-03-01T09:00:54.813Z,5.81
2023-03-01T09:01:56.789Z,6.01
2023-03-01T09:03:01.363Z,6.30
2023-03-01T09:04:06.163Z,6.24
2023-03-01T09:05:09.265Z,6.81
2023-03-01T09:06:15.587Z,7.07
2023-03-01T09:07:20.183Z,7.14
2023-03-01T09:08:22.267Z,7.46
2023-03-01T09:09:26.945Z,7.51
2023-03-01T09:10:31.745Z,7.42
2023-03-01T09:11:38.992Z,6.90
2023-03-01T09:12:43.626Z,7.27
2023-03-01T09:13:45.975Z,7.17
2023-03-01T09:14:50.673Z,6.89
2023-03-01T09:15:52.853Z,6.99
2023-03-01T09:16:57.850Z,7.11
2023-03-01T09:18:00.401Z,7.22
2023-03-01T09:19:05.257Z,7.29
2023-03-01T09:20:08.114Z,7.06
2023-03-01T09:21:15.196Z,7.47
2023-03-01T09:22:19.869Z,7.81
2023-03-01T09:23:22.000Z,8.01
2023-03-01T09:24:28.278Z,7.75
2023-03-01T09:25:33.105Z,7.38
2023-03-01T09:26:40.523Z,7.43
2023-03-01T09:27:45.189Z,7.30
2023-03-01T09:28:48.075Z,7.40
2023-03-01T09:29:52.679Z,7.98
2023-03-01T09:30:57.278Z,8.05
2023-03-01T09:32:01.897Z,8.33
2023-03-01T09:33:04.016Z,8.73
2023-03-01T09:34:09.508Z,8.80
2023-03-01T09:35:12.037Z,8.87
2023-03-01T09:36:18.729Z,9.03
2023-03-01T09:37:20.836Z,8.82
2023-03-01T09:38:26.668Z,9.25
2023-03-01T09:39:33.063Z,9.56
2023-03-01T09:40:37.815Z,9.86
2023-03-01T09:41:51.115Z,9.92
2023-03-01T09:43:04.018Z,9.56
2023-03-01T09:44:12.346Z,9.74
2023-03-01T09:45:28.064Z,10.02
2023-03-01T09:46:46.225Z,10.04
2023-03-01T09:47:49.692Z,10.04
2023-03-01T09:48:59.014Z,10.18
2023-03-01T09:50:10.326Z,10.21
2023-03-01T09:51:19.576Z,9.68
2023-03-01T09:52:32.139Z,10.03
2023-03-01T09:53:36.227Z,10.24
2023-03-01T09:54:41.363Z,10.49
2023-03-01T09:55:49.656Z,10.75
2023-03-01T09:57:07.964Z,10.91
2023-03-01T09:58:32.054Z,11.08
2023-03-01T09:59:46.057Z,10.98
2023-03-01T10:00:53.548Z,11.27
2023-03-01T10:02:03.909Z,10.99
2023-03-01T10:03:18.464Z,10.01
2023-03-01T10:04:43.087Z,10.47
2023-03-01T10:05:51.224Z,10.52
2023-03-01T10:07:06.262Z,10.67
2023-03-01T10:08:32.119Z,10.56
2023-03-01T10:09:38.825Z,9.55
2023-03-01T10:10:44.757Z,10.35
2023-03-01T10:11:52.659Z,9.97
2023-03-01T10:12:58.450Z,9.51
2023-03-01T10:14:06.970Z,9.78
2023-03-01T10:15:18.822Z,10.20
2023-03-01T10:16:30.892Z,10.51
2023-03-01T10:17:41.234Z,10.51
2023-03-01T10:18:47.948Z,10.83
2023-03-01T10:19:52.885Z,10.44
2023-03-01T10:21:01.138Z,10.42
2023-03-01T10:22:15.269Z,10.83
2023-03-01T10:23:17.331Z,10.37
2023-03-01T10:24:23.811Z,10.14
2023-03-01T10:25:45.068Z,9.63
2023-03-01T10:26:55.091Z,9.88
2023-03-01T10:28:09.117Z,9.35
2023-03-01T10:29:15.707Z,9.84
2023-03-01T10:30:23.742Z,10.07
2023-03-01T10:31:38.256Z,10.37
2023-03-01T10:32:43.744Z,10.87
2023-03-01T10:33:49.065Z,11.11
2023-03-01T10:34:53.676Z,10.72
2023-03-01T10:35:55.978Z,10.89
2023-03-01T10:37:04.854Z,10.65
2023-03-01T10:38:09.703Z,10.49
2023-03-01T10:39:20.406Z,10.38
2023-03-01T10:40:23.441Z,10.21
2023-03-01T10:41:30.313Z,10.82
2023-03-01T10:42:37.001Z,11.01
2023-03-01T10:43:47.286Z,11.01
2023-03-01T10:44:53.126Z,11.43
2023-03-01T10:45:57.913Z,11.56
2023-03-01T10:47:01.773Z,11.42
2023-03-01T10:48:15.929Z,11.56
2023-03-01T10:49:24.026Z,11.23
2023-03-01T10:50:28.634Z,11.46
2023-03-01T10:51:31.037Z,11.84
2023-03-01T10:52:38.570Z,11.80
2023-03-01T10:53:46.526Z,11.80
2023-03-01T10:54:57.737Z,11.22
2023-03-01T10:56:10.890Z,11.65
2023-03-01T10:57:32.227Z,11.75
2023-03-01T10:58:37.722Z,11.85
2023-03-01T10:59:42.388Z,11.77
2023-03-01T11:00:53.756Z,11.64
2023-03-01T11:02:25.645Z,11.20
2023-03-01T11:03:32.605Z,10.97
2023-03-01T11:04:34.797Z,10.95
2023-03-01T11:05:39.731Z,10.95
2023-03-01T11:06:45.848Z,10.88
2023-03-01T11:07:49.186Z,10.69
2023-03-01T11:08:55.262Z,10.45
2023-03-01T11:09:57.507Z,10.35
2023-03-01T11:11:11.108Z,10.42
2023-03-01T11:12:19.152Z,10.25
2023-03-01T11:13:21.885Z,10.41
2023-03-01T11:14:29.121Z,10.46
2023-03-01T11:15:33.907Z,10.55
2023-03-01T11:16:40.300Z,10.66
2023-03-01T11:17:54.550Z,10.74
2023-03-01T11:19:02.316Z,11.03
2023-03-01T11:20:20.089Z,11.13
2023-03-01T11:21:22.206Z,10.41
2023-03-01T11:22:27.416Z,10.74
2023-03-01T11:23:34.532Z,10.46
2023-03-01T11:24:43.848Z,10.99
2023-03-01T11:25:55.666Z,11.23
2023-03-01T11:27:01.053Z,11.19
2023-03-01T11:28:07.999Z,11.54
2023-03-01T11:29:18.964Z,11.65
2023-03-01T11:30:27.933Z,11.80
2023-03-01T11:31:39.084Z,11.84
2023-03-01T11:32:49.264Z,12.02
2023-03-01T11:33:56.986Z,12.31
2023-03-01T11:35:09.250Z,12.64
2023-03-01T11:36:21.373Z,13.01
2023-03-01T11:37:36.158Z,12.47
2023-03-01T11:38:42.580Z,12.76
2023-03-01T11:39:53.037Z,12.88
2023-03-01T11:41:06.514Z,12.30
2023-03-01T11:42:19.058Z,12.24
2023-03-01T11:43:30.586Z,12.28
2023-03-01T11:44:37.536Z,12.23
2023-03-01T11:45:51.341Z,12.20
2023-03-01T11:47:16.071Z,12.14
2023-03-01T11:48:49.528Z,12.16
2023-03-01T11:50:22.395Z,12.15
2023-03-01T11:51:34.059Z,12.28
2023-03-01T11:52:52.383Z,12.65
2023-03-01T11:54:22.711Z,12.72
2023-03-01T11:55:57.337Z,12.77
2023-03-01T11:57:06.348Z,12.20
2023-03-01T11:58:40.631Z,12.62
2023-03-01T12:00:24.139Z,12.93
2023-03-01T12:01:48.371Z,12.67
2023-03-01T12:03:19.977Z,12.66
2023-03-01T12:05:00.527Z,12.57
2023-03-01T12:06:12.581Z,12.59
2023-03-01T12:07:26.193Z,12.59
2023-03-01T12:08:35.011Z,12.35
2023-03-01T12:10:02.308Z,11.69
2023-03-01T12:11:17.149Z,12.00
2023-03-01T12:12:50.765Z,12.00
2023-03-01T12:14:10.533Z,12.07
2023-03-01T12:15:42.037Z,12.43
2023-03-01T12:17:04.680Z,12.06
2023-03-01T12:18:29.530Z,12.09
2023-03-01T12:19:47.213Z,12.32
2023-03-01T12:21:01.005Z,12.18
2023-03-01T12:22:30.160Z,12.16
2023-03-01T12:24:05.108Z,12.67
2023-03-01T12:25:34.973Z,12.89
2023-03-01T12:26:43.730Z,12.80
2023-03-01T12:28:11.872Z,12.76
2023-03-01T12:29:28.988Z,12.98
2023-03-01T12:30:44.803Z,12.98
2023-03-01T12:32:25.793Z,12.73
2023-03-01T12:33:45.981Z,13.01
2023-03-01T12:35:35.257Z,12.19
2023-03-01T12:37:02.133Z,12.50
2023-03-01T12:38:23.497Z,12.13
2023-03-01T12:39:43.681Z,11.91
2023-03-01T12:41:10.303Z,12.19
2023-03-01T12:42:25.956Z,12.57
2023-03-01T12:43:45.495Z,12.49
2023-03-01T12:45:03.145Z,12.75
2023-03-01T12:46:19.356Z,12.36
2023-03-01T12:47:45.957Z,11.88
2023-03-01T12:49:04.550Z,11.88
2023-03-01T12:50:19.542Z,12.02
2023-03-01T12:51:25.980Z,12.05
2023-03-01T12:52:41.029Z,11.86
2023-03-01T12:53:49.162Z,12.27
2023-03-01T12:54:54.612Z,12.56
2023-03-01T12:56:04.779Z,12.52
2023-03-01T12:57:20.591Z,12.65
2023-03-01T12:58:37.081Z,12.02
2023-03-01T13:00:05.890Z,12.44
2023-03-01T13:01:24.997Z,12.69
2023-03-01T13:02:37.022Z,12.44
2023-03-01T13:03:57.560Z,13.12
2023-03-01T13:05:20.503Z,13.04
2023-03-01T13:06:38.146Z,13.16
2023-03-01T13:07:57.201Z,13.62
2023-03-01T13:09:07.704Z,13.66
2023-03-01T13:10:24.042Z,13.36
2023-03-01T13:11:26.202Z,13.72
2023-03-01T13:12:53.526Z,14.10
2023-03-01T13:14:39.608Z,13.88
2023-03-01T13:15:45.028Z,13.72
2023-03-01T13:16:50.304Z,13.24
2023-03-01T13:17:56.318Z,13.35
2023-03-01T13:19:17.792Z,13.45
2023-03-01T13:20:22.253Z,13.39
2023-03-01T13:21:35.208Z,13.18
2023-03-01T13:22:49.802Z,13.23
2023-03-01T13:23:57.957Z,13.25
2023-03-01T13:25:14.320Z,13.62
2023-03-01T13:26:20.972Z,14.25
2023-03-01T13:27:26.206Z,14.50
2023-03-01T13:28:50.202Z,14.67
2023-03-01T13:29:57.073Z,15.05
2023-03-01T13:30:59.925Z,15.31
2023-03-01T13:32:05.795Z,15.19
2023-03-01T13:33:52.690Z,15.54
2023-03-01T13:35:05.860Z,15.28
2023-03-01T13:36:09.787Z,15.19
2023-03-01T13:37:23.243Z,15.26
2023-03-01T13:38:50.334Z,15.41
2023-03-01T13:39:52.534Z,15.69
2023-03-01T13:41:04.142Z,15.49
2023-03-01T13:42:29.797Z,15.42
2023-03-01T13:43:36.488Z,16.15
2023-03-01T13:44:40.016Z,16.85
2023-03-01T13:45:46.927Z,17.11
2023-03-01T13:46:49.545Z,16.15
2023-03-01T13:47:59.360Z,16.92
2023-03-01T13:49:04.884Z,17.05
2023-03-01T13:50:19.977Z,17.51
2023-03-01T13:51:29.119Z,17.43
2023-03-01T13:52:43.272Z,17.29
2023-03-01T13:53:50.812Z,17.56
2023-03-01T13:54:54.108Z,16.59
2023-03-01T13:56:02.316Z,16.94
2023-03-01T13:57:07.495Z,16.95
2023-03-01T13:58:20.817Z,17.14
2023-03-01T13:59:27.422Z,17.53
2023-03-01T14:00:36.241Z,17.78
2023-03-01T14:01:43.679Z,18.04
2023-03-01T14:02:46.093Z,17.58
2023-03-01T14:03:50.773Z,17.68
2023-03-01T14:04:58.317Z,17.67
2023-03-01T14:06:15.944Z,17.69
2023-03-01T14:07:25.267Z,17.67
2023-03-01T14:08:30.268Z,17.83
2023-03-01T14:09:35.578Z,18.00
2023-03-01T14:10:52.451Z,18.38
2023-03-01T14:12:20.241Z,17.56
2023-03-01T14:13:40.140Z,17.19
2023-03-01T14:14:52.220Z,16.29
2023-03-01T14:16:18.645Z,16.87
2023-03-01T14:17:38.592Z,16.34
2023-03-01T14:18:53.234Z,16.38
2023-03-01T14:20:01.040Z,15.91
2023-03-01T14:21:11.696Z,15.76
2023-03-01T14:22:20.450Z,16.43
2023-03-01T14:23:28.060Z,16.54
2023-03-01T14:24:33.638Z,16.60
2023-03-01T14:25:40.076Z,16.09
2023-03-01T14:26:42.170Z,16.25
2023-03-01T14:27:47.334Z,16.94
2023-03-01T14:28:52.986Z,16.97
2023-03-01T14:29:59.808Z,17.42
2023-03-01T14:31:05.414Z,17.64
2023-03-01T14:32:23.466Z,18.20
2023-03-01T14:33:30.709Z,18.72
2023-03-01T14:34:33.934Z,18.64
2023-03-01T14:35:40.026Z,18.87
2023-03-01T14:36:47.814Z,18.41
2023-03-01T14:37:50.997Z,19.03
2023-03-01T14:38:56.056Z,19.20
2023-03-01T14:40:00.047Z,18.64
2023-03-01T14:41:07.504Z,18.73
2023-03-01T14:42:15.503Z,18.89
2023-03-01T14:43:27.374Z,19.14
2023-03-01T14:44:35.058Z,18.68
2023-03-01T14:45:39.794Z,19.13